Cochabamba, Bolivia
Current Conditions -  °F | °C
As of 11:00 PM on Thursday 27 Nov 2014 (Local Time) from SLCB Reporting Station
Scattered Clouds Scattered Clouds  
Wind Chill: 57°   Ceiling: Unl
Heat Index: 57°   Visibility: 6mi
Dew Point: 48°   Wind: 3mph
Humidity: 72%   Direction: 20°NNE
Pressure: 30.36"   Gusts: NA
Location:  17.38°S, 66.17°W
Report Text: SLCB 280300Z 02003KT 9999 FEW025 SCT070 14/09 Q1028
Loading
Personal Weather Stations






























Interactive Weather Map New forecast layout! Learn more

10-Day Weather Forecast

Advertisements
Track Severe Weather on mobile